Terminal Aerodrome Forecast
Issued by NWS Corpus Christi, TX

Home | Current Version | Previous Version | Text Only | Print | Product List | Glossary On
Versions: 1 2 3 4 5 6 7 8 9 10 11 12 13 14 15
060
FTUS44 KCRP 140530
TAFCRP
TAF
KCRP 140530Z 1406/1506 15007KT P6SM FEW015
      TEMPO 1410/1414 BKN012
     FM141500 17016G21KT P6SM SCT025 BKN250
     FM141800 16022G28KT P6SM SCT035 BKN250
     FM150300 15014KT P6SM SCT015=

USA.gov is the U.S. government's official web portal to all federal, state and local government web resources and services.